createdAt,value
2023-09-03T00:00:05.238Z,21.40
2023-09-03T00:02:40.771Z,21.38
2023-09-03T00:05:08.343Z,21.47
2023-09-03T00:07:35.543Z,21.39
2023-09-03T00:10:03.089Z,21.41
2023-09-03T00:12:31.087Z,21.34
2023-09-03T00:14:59.576Z,21.41
2023-09-03T00:17:27.172Z,21.36
2023-09-03T00:19:54.345Z,21.43
2023-09-03T00:22:21.598Z,21.39
2023-09-03T00:24:49.318Z,21.27
2023-09-03T00:27:16.975Z,21.33
2023-09-03T00:29:44.105Z,21.23
2023-09-03T00:32:11.305Z,21.31
2023-09-03T00:34:38.593Z,21.28
2023-09-03T00:37:06.458Z,21.19
2023-09-03T00:39:34.158Z,21.24
2023-09-03T00:42:01.493Z,21.08
2023-09-03T00:44:29.235Z,21.19
2023-09-03T00:46:56.822Z,21.07
2023-09-03T00:49:26.129Z,21.12
2023-09-03T00:51:54.858Z,21.07
2023-09-03T00:54:24.996Z,21.12
2023-09-03T00:56:54.991Z,20.92
2023-09-03T00:59:24.200Z,21.07
2023-09-03T01:01:53.286Z,21.07
2023-09-03T01:04:20.603Z,20.99
2023-09-03T01:06:52.876Z,21.08
2023-09-03T01:09:20.918Z,21.14
2023-09-03T01:12:30.094Z,21.07
2023-09-03T01:15:15.787Z,21.12
2023-09-03T01:17:49.563Z,21.06
2023-09-03T01:20:21.215Z,20.96
2023-09-03T01:23:04.898Z,20.80
2023-09-03T01:25:55.234Z,20.95
2023-09-03T01:28:32.870Z,20.80
2023-09-03T01:31:07.392Z,20.84
2023-09-03T01:33:35.741Z,20.96
2023-09-03T01:36:07.506Z,20.69
2023-09-03T01:38:35.285Z,20.69
2023-09-03T01:41:02.855Z,20.65
2023-09-03T01:43:31.380Z,20.67
2023-09-03T01:46:07.843Z,20.62
2023-09-03T01:48:53.190Z,20.67
2023-09-03T01:51:33.156Z,20.56
2023-09-03T01:54:10.060Z,20.52
2023-09-03T01:56:44.570Z,20.50
2023-09-03T01:59:15.307Z,20.72
2023-09-03T02:01:43.911Z,20.53
2023-09-03T02:04:11.413Z,20.51
2023-09-03T02:06:38.966Z,20.36
2023-09-03T02:09:06.729Z,20.41
2023-09-03T02:11:33.924Z,20.47
2023-09-03T02:14:01.524Z,20.39
2023-09-03T02:16:30.200Z,20.39
2023-09-03T02:18:57.626Z,20.39
2023-09-03T02:21:25.420Z,20.44
2023-09-03T02:23:52.924Z,20.39
2023-09-03T02:26:20.241Z,20.38
2023-09-03T02:28:47.439Z,20.35
2023-09-03T02:31:14.612Z,20.34
2023-09-03T02:33:41.765Z,20.24
2023-09-03T02:36:09.427Z,20.22
2023-09-03T02:38:36.575Z,20.36
2023-09-03T02:41:03.904Z,20.27
2023-09-03T02:43:31.206Z,20.17
2023-09-03T02:46:00.307Z,20.14
2023-09-03T02:48:27.524Z,20.19
2023-09-03T02:50:54.918Z,20.24
2023-09-03T02:53:22.150Z,20.14
2023-09-03T02:55:49.714Z,20.20
2023-09-03T02:58:17.547Z,20.13
2023-09-03T03:00:44.737Z,20.21
2023-09-03T03:03:13.761Z,20.25
2023-09-03T03:05:41.086Z,20.21
2023-09-03T03:08:09.851Z,20.10
2023-09-03T03:10:37.144Z,19.90
2023-09-03T03:13:04.583Z,20.00
2023-09-03T03:15:32.081Z,20.11
2023-09-03T03:17:59.996Z,19.95
2023-09-03T03:20:27.369Z,20.04
2023-09-03T03:22:54.604Z,19.96
2023-09-03T03:25:23.920Z,19.97
2023-09-03T03:27:51.085Z,20.10
2023-09-03T03:30:19.300Z,20.05
2023-09-03T03:32:46.711Z,20.09
2023-09-03T03:35:14.109Z,20.17
2023-09-03T03:37:41.343Z,19.99
2023-09-03T03:40:08.905Z,20.19
2023-09-03T03:42:37.735Z,20.09
2023-09-03T03:45:05.723Z,20.19
2023-09-03T03:47:33.317Z,20.19
2023-09-03T03:50:00.590Z,20.26
2023-09-03T03:52:27.740Z,20.33
2023-09-03T03:54:55.127Z,20.26
2023-09-03T03:57:22.496Z,20.29
2023-09-03T03:59:50.390Z,20.30
2023-09-03T04:02:18.452Z,20.46
2023-09-03T04:04:45.726Z,20.54
2023-09-03T04:07:12.987Z,20.57
2023-09-03T04:09:41.389Z,20.51
2023-09-03T04:12:08.942Z,20.62
2023-09-03T04:14:37.174Z,20.61
2023-09-03T04:17:05.373Z,20.61
2023-09-03T04:19:33.075Z,20.66
2023-09-03T04:22:01.065Z,20.75
2023-09-03T04:24:28.461Z,20.81
2023-09-03T04:26:55.672Z,20.94
2023-09-03T04:29:23.485Z,20.87
2023-09-03T04:31:50.940Z,21.03
2023-09-03T04:34:18.282Z,21.05
2023-09-03T04:36:45.972Z,21.05
2023-09-03T04:39:14.027Z,21.17
2023-09-03T04:41:42.010Z,21.13
2023-09-03T04:44:12.443Z,21.20
2023-09-03T04:46:43.716Z,21.27
2023-09-03T04:49:11.972Z,21.30
2023-09-03T04:51:39.390Z,21.33
2023-09-03T04:54:06.917Z,21.43
2023-09-03T04:56:34.316Z,21.42
2023-09-03T04:59:02.400Z,21.43
2023-09-03T05:01:29.676Z,21.54
2023-09-03T05:04:06.645Z,21.55
2023-09-03T05:06:34.017Z,21.73
2023-09-03T05:09:03.280Z,21.85
2023-09-03T05:11:30.848Z,21.86
2023-09-03T05:13:59.121Z,22.03
2023-09-03T05:16:28.459Z,22.04
2023-09-03T05:18:56.280Z,21.98
2023-09-03T05:21:24.601Z,22.07
2023-09-03T05:23:52.327Z,22.05
2023-09-03T05:26:19.667Z,22.12
2023-09-03T05:28:47.121Z,22.06
2023-09-03T05:31:14.498Z,21.99
2023-09-03T05:33:43.085Z,22.04
2023-09-03T05:36:11.875Z,22.07
2023-09-03T05:38:40.496Z,22.16
2023-09-03T05:41:07.858Z,22.12
2023-09-03T05:43:35.254Z,22.13
2023-09-03T05:46:03.978Z,22.09
2023-09-03T05:48:33.008Z,22.21
2023-09-03T05:51:05.368Z,22.24
2023-09-03T05:53:35.832Z,22.32
2023-09-03T05:56:08.023Z,22.48
2023-09-03T05:58:36.755Z,22.47
2023-09-03T06:01:08.939Z,22.71
2023-09-03T06:03:37.526Z,22.69
2023-09-03T06:06:05.946Z,22.80
2023-09-03T06:08:35.575Z,22.79
2023-09-03T06:11:03.585Z,22.83
2023-09-03T06:13:33.030Z,22.81
2023-09-03T06:16:00.672Z,22.97
2023-09-03T06:18:28.197Z,22.99
2023-09-03T06:20:55.696Z,23.01
2023-09-03T06:23:23.089Z,23.13
2023-09-03T06:25:52.244Z,23.18
2023-09-03T06:28:20.041Z,23.27
2023-09-03T06:30:47.681Z,23.27
2023-09-03T06:33:15.172Z,23.32
2023-09-03T06:35:42.682Z,23.47
2023-09-03T06:38:09.925Z,23.47
2023-09-03T06:40:37.274Z,23.41
2023-09-03T06:43:04.822Z,23.44
2023-09-03T06:45:33.840Z,23.65
2023-09-03T06:48:01.528Z,23.75
2023-09-03T06:50:29.139Z,23.79
2023-09-03T06:52:56.530Z,23.83
2023-09-03T06:55:23.990Z,23.91
2023-09-03T06:57:51.118Z,23.90
2023-09-03T07:00:18.512Z,23.96
2023-09-03T07:02:45.829Z,24.15
2023-09-03T07:05:13.015Z,24.17
2023-09-03T07:07:40.200Z,24.11
2023-09-03T07:10:07.858Z,24.17
2023-09-03T07:12:35.191Z,24.24
2023-09-03T07:15:02.640Z,24.21
2023-09-03T07:17:33.142Z,24.33
2023-09-03T07:20:00.731Z,24.51
2023-09-03T07:22:28.099Z,24.55
2023-09-03T07:24:55.525Z,24.63
2023-09-03T07:27:22.781Z,24.69
2023-09-03T07:29:54.537Z,24.71
2023-09-03T07:32:22.934Z,24.83
2023-09-03T07:34:54.753Z,24.90
2023-09-03T07:37:22.045Z,24.85
2023-09-03T07:39:49.371Z,24.78
2023-09-03T07:42:16.797Z,24.87
2023-09-03T07:44:44.095Z,24.84
2023-09-03T07:47:11.492Z,24.91
2023-09-03T07:49:38.728Z,24.94
2023-09-03T07:52:11.058Z,25.04
2023-09-03T07:54:38.442Z,25.13
2023-09-03T07:57:06.197Z,25.35
2023-09-03T07:59:33.384Z,25.38
2023-09-03T08:02:02.229Z,25.32
2023-09-03T08:04:30.147Z,25.37
2023-09-03T08:06:57.692Z,25.41
2023-09-03T08:09:25.660Z,25.58
2023-09-03T08:11:54.172Z,25.60
2023-09-03T08:14:21.626Z,25.68
2023-09-03T08:16:48.931Z,25.74
2023-09-03T08:19:16.625Z,25.77
2023-09-03T08:21:43.815Z,25.81
2023-09-03T08:24:11.150Z,25.82
2023-09-03T08:26:38.796Z,25.98
2023-09-03T08:29:06.050Z,26.09
2023-09-03T08:31:33.521Z,26.07
2023-09-03T08:34:01.177Z,26.12
2023-09-03T08:36:28.273Z,25.98
2023-09-03T08:38:55.508Z,26.06
2023-09-03T08:41:26.684Z,26.17
2023-09-03T08:43:58.535Z,26.16
2023-09-03T08:46:29.897Z,26.25
2023-09-03T08:48:58.261Z,26.21
2023-09-03T08:51:27.677Z,26.10
2023-09-03T08:53:58.223Z,26.28
2023-09-03T08:56:25.913Z,26.38
2023-09-03T08:58:54.149Z,26.48
2023-09-03T09:01:23.401Z,26.53
2023-09-03T09:03:55.914Z,26.61
2023-09-03T09:06:24.484Z,26.67
2023-09-03T09:08:52.610Z,26.71
2023-09-03T09:11:20.874Z,26.71
2023-09-03T09:13:59.598Z,26.62
2023-09-03T09:16:26.942Z,26.60
2023-09-03T09:18:56.623Z,26.62
2023-09-03T09:21:24.056Z,26.77
2023-09-03T09:23:51.486Z,26.76
2023-09-03T09:26:20.552Z,26.88
2023-09-03T09:29:08.190Z,27.04
2023-09-03T09:31:36.877Z,27.06
2023-09-03T09:34:14.326Z,27.00
2023-09-03T09:36:57.897Z,27.04
2023-09-03T09:39:26.513Z,26.99
2023-09-03T09:42:08.446Z,27.02
2023-09-03T09:44:35.968Z,27.18
2023-09-03T09:47:19.541Z,27.24
2023-09-03T09:49:47.338Z,27.15
2023-09-03T09:52:16.217Z,27.19
2023-09-03T09:54:44.461Z,27.19
2023-09-03T09:57:22.253Z,27.11
2023-09-03T10:00:01.200Z,27.24
2023-09-03T10:02:38.608Z,27.27
2023-09-03T10:05:11.851Z,27.28
2023-09-03T10:07:42.278Z,27.17
2023-09-03T10:10:10.495Z,27.35
2023-09-03T10:12:38.119Z,27.12
2023-09-03T10:15:05.981Z,27.23
2023-09-03T10:17:35.745Z,27.33
2023-09-03T10:20:05.871Z,27.27
2023-09-03T10:22:38.154Z,27.40
2023-09-03T10:25:09.832Z,27.53
2023-09-03T10:27:41.209Z,27.50
2023-09-03T10:30:12.926Z,27.55
2023-09-03T10:32:40.533Z,27.70
2023-09-03T10:35:09.406Z,27.75
2023-09-03T10:37:38.822Z,27.60
2023-09-03T10:40:26.108Z,27.61
2023-09-03T10:42:54.870Z,27.78
2023-09-03T10:45:22.394Z,27.87
2023-09-03T10:48:03.824Z,27.80
2023-09-03T10:50:51.750Z,27.99
2023-09-03T10:53:37.943Z,27.98
2023-09-03T10:56:15.543Z,27.93
2023-09-03T10:59:00.171Z,27.94
2023-09-03T11:01:31.621Z,28.16
2023-09-03T11:04:05.638Z,28.21
2023-09-03T11:06:34.624Z,28.23
2023-09-03T11:09:05.463Z,28.19
2023-09-03T11:11:38.027Z,28.18
2023-09-03T11:14:13.342Z,28.14
2023-09-03T11:16:41.828Z,28.14
2023-09-03T11:19:09.422Z,28.13
2023-09-03T11:21:38.860Z,28.15
2023-09-03T11:24:18.432Z,28.13
2023-09-03T11:26:46.616Z,28.05
2023-09-03T11:29:25.229Z,28.17
2023-09-03T11:31:52.928Z,28.23
2023-09-03T11:34:24.883Z,28.20
2023-09-03T11:36:52.794Z,28.18
2023-09-03T11:39:20.205Z,28.24
2023-09-03T11:41:48.101Z,28.24
2023-09-03T11:44:16.056Z,28.30
2023-09-03T11:46:59.070Z,28.51
2023-09-03T11:49:26.964Z,28.47
2023-09-03T11:51:55.277Z,28.46
2023-09-03T11:54:28.995Z,28.58
2023-09-03T11:57:00.856Z,28.52
2023-09-03T11:59:28.280Z,28.60
2023-09-03T12:01:55.988Z,28.49
2023-09-03T12:04:23.625Z,28.46
2023-09-03T12:06:51.163Z,28.52
2023-09-03T12:09:24.056Z,28.60
2023-09-03T12:11:52.132Z,28.50
2023-09-03T12:14:32.959Z,28.55
2023-09-03T12:17:00.432Z,28.50
2023-09-03T12:19:43.636Z,28.59
2023-09-03T12:22:11.088Z,28.55
2023-09-03T12:24:38.496Z,28.49
2023-09-03T12:27:06.823Z,28.55
2023-09-03T12:29:51.761Z,28.62
2023-09-03T12:32:34.654Z,28.66
2023-09-03T12:35:13.429Z,28.67
2023-09-03T12:37:43.490Z,28.66
2023-09-03T12:40:12.194Z,28.71
2023-09-03T12:42:39.552Z,28.73
2023-09-03T12:45:09.225Z,28.70
2023-09-03T12:47:36.850Z,28.77
2023-09-03T12:50:04.473Z,28.78
2023-09-03T12:52:31.800Z,28.77
2023-09-03T12:54:59.083Z,28.89
2023-09-03T12:57:28.101Z,28.84
2023-09-03T12:59:55.377Z,28.86
2023-09-03T13:02:22.703Z,28.85
2023-09-03T13:04:49.901Z,28.83
2023-09-03T13:07:17.495Z,28.99
2023-09-03T13:09:44.733Z,28.99
2023-09-03T13:12:12.476Z,29.00
2023-09-03T13:14:39.652Z,28.94
2023-09-03T13:17:06.811Z,28.90
2023-09-03T13:19:34.111Z,28.89
2023-09-03T13:22:01.328Z,29.02
2023-09-03T13:24:29.115Z,29.03
2023-09-03T13:26:56.214Z,28.91
2023-09-03T13:29:23.646Z,28.97
2023-09-03T13:31:50.990Z,28.87
2023-09-03T13:34:18.504Z,29.00
2023-09-03T13:36:48.017Z,29.03
2023-09-03T13:39:16.951Z,28.96
2023-09-03T13:41:44.188Z,28.97
2023-09-03T13:44:11.348Z,29.08
2023-09-03T13:46:38.794Z,29.09
2023-09-03T13:49:06.175Z,29.09
2023-09-03T13:51:33.590Z,28.95
2023-09-03T13:54:01.231Z,28.99
2023-09-03T13:56:28.878Z,29.02
2023-09-03T13:58:58.791Z,28.97
2023-09-03T14:01:26.082Z,28.83
2023-09-03T14:03:53.518Z,28.98
2023-09-03T14:06:20.775Z,28.99
2023-09-03T14:08:48.987Z,28.98
2023-09-03T14:11:16.514Z,28.92
2023-09-03T14:13:45.924Z,28.90
2023-09-03T14:16:19.640Z,28.91
2023-09-03T14:18:47.246Z,28.90
2023-09-03T14:21:14.879Z,28.93
2023-09-03T14:23:42.077Z,28.93
2023-09-03T14:26:17.278Z,28.84
2023-09-03T14:28:45.921Z,28.88
2023-09-03T14:31:13.481Z,28.80
2023-09-03T14:33:40.996Z,28.88
2023-09-03T14:36:08.340Z,28.89
2023-09-03T14:38:35.639Z,28.72
2023-09-03T14:41:02.872Z,28.83
2023-09-03T14:43:30.458Z,28.75
2023-09-03T14:46:01.551Z,28.82
2023-09-03T14:48:29.525Z,28.80
2023-09-03T14:50:57.050Z,28.77
2023-09-03T14:53:24.370Z,28.82
2023-09-03T14:55:51.817Z,28.81
2023-09-03T14:58:19.388Z,28.71
2023-09-03T15:00:48.342Z,28.74
2023-09-03T15:03:16.569Z,28.74
2023-09-03T15:05:44.236Z,28.73
2023-09-03T15:08:12.765Z,28.69
2023-09-03T15:10:41.013Z,28.61
2023-09-03T15:13:08.300Z,28.69
2023-09-03T15:15:38.957Z,28.70
2023-09-03T15:18:09.993Z,28.73
2023-09-03T15:20:37.388Z,28.70
2023-09-03T15:23:04.824Z,28.63
2023-09-03T15:25:32.280Z,28.65
2023-09-03T15:27:59.390Z,28.63
2023-09-03T15:30:29.359Z,28.61
2023-09-03T15:32:59.143Z,28.66
2023-09-03T15:35:27.745Z,28.65
2023-09-03T15:37:55.004Z,28.53
2023-09-03T15:40:22.471Z,28.39
2023-09-03T15:42:49.831Z,28.51
2023-09-03T15:45:17.578Z,28.30
2023-09-03T15:47:44.767Z,28.44
2023-09-03T15:50:12.037Z,28.34
2023-09-03T15:52:39.275Z,28.40
2023-09-03T15:55:07.524Z,28.30
2023-09-03T15:57:34.861Z,28.34
2023-09-03T16:00:04.440Z,28.29
2023-09-03T16:02:34.670Z,28.23
2023-09-03T16:05:04.019Z,28.19
2023-09-03T16:07:31.650Z,28.24
2023-09-03T16:09:58.847Z,28.21
2023-09-03T16:12:28.773Z,28.13
2023-09-03T16:14:56.592Z,28.11
2023-09-03T16:17:24.466Z,28.15
2023-09-03T16:19:52.282Z,28.07
2023-09-03T16:22:20.971Z,28.08
2023-09-03T16:24:49.081Z,27.96
2023-09-03T16:27:17.247Z,28.06
2023-09-03T16:29:51.773Z,28.04
2023-09-03T16:32:19.312Z,27.92
2023-09-03T16:34:51.419Z,27.86
2023-09-03T16:37:23.141Z,27.77
2023-09-03T16:39:51.468Z,27.80
2023-09-03T16:42:18.770Z,27.85
2023-09-03T16:44:46.496Z,27.81
2023-09-03T16:47:13.663Z,27.74
2023-09-03T16:49:40.990Z,27.67
2023-09-03T16:52:08.793Z,27.71
2023-09-03T16:54:38.845Z,27.63
2023-09-03T16:57:06.084Z,27.63
2023-09-03T16:59:33.341Z,27.56
2023-09-03T17:02:01.641Z,27.55
2023-09-03T17:04:28.955Z,27.58
2023-09-03T17:06:57.134Z,27.53
2023-09-03T17:09:24.365Z,27.48
2023-09-03T17:11:53.093Z,27.51
2023-09-03T17:14:20.370Z,27.41
2023-09-03T17:16:47.920Z,27.42
2023-09-03T17:19:15.235Z,27.44
2023-09-03T17:21:42.904Z,27.33
2023-09-03T17:24:10.483Z,27.31
2023-09-03T17:26:37.646Z,27.24
2023-09-03T17:29:11.071Z,27.27
2023-09-03T17:31:38.450Z,27.23
2023-09-03T17:34:05.950Z,27.19
2023-09-03T17:36:33.823Z,27.14
2023-09-03T17:39:02.121Z,27.04
2023-09-03T17:41:29.627Z,27.08
2023-09-03T17:43:57.040Z,26.97
2023-09-03T17:46:24.508Z,27.02
2023-09-03T17:48:51.950Z,26.94
2023-09-03T17:51:19.135Z,27.01
2023-09-03T17:53:46.363Z,26.95
2023-09-03T17:56:13.715Z,26.90
2023-09-03T17:58:41.079Z,26.76
2023-09-03T18:01:08.426Z,26.63
2023-09-03T18:03:36.188Z,26.76
2023-09-03T18:06:11.697Z,26.73
2023-09-03T18:08:40.168Z,26.67
2023-09-03T18:11:18.962Z,26.56
2023-09-03T18:13:46.822Z,26.41
2023-09-03T18:16:15.673Z,26.37
2023-09-03T18:18:45.618Z,26.33
2023-09-03T18:21:16.405Z,26.25
2023-09-03T18:23:47.318Z,26.28
2023-09-03T18:26:16.174Z,26.05
2023-09-03T18:28:47.524Z,26.17
2023-09-03T18:31:15.790Z,26.27
2023-09-03T18:33:43.234Z,26.18
2023-09-03T18:36:10.622Z,26.19
2023-09-03T18:38:37.862Z,26.10
2023-09-03T18:41:05.389Z,26.12
2023-09-03T18:43:32.973Z,26.09
2023-09-03T18:46:02.049Z,25.94
2023-09-03T18:48:29.543Z,26.00
2023-09-03T18:51:01.483Z,26.02
2023-09-03T18:53:28.907Z,25.87
2023-09-03T18:55:56.119Z,25.99
2023-09-03T18:58:23.872Z,25.92
2023-09-03T19:00:51.086Z,25.79
2023-09-03T19:03:18.536Z,25.84
2023-09-03T19:05:49.263Z,25.82
2023-09-03T19:08:17.456Z,25.62
2023-09-03T19:10:45.009Z,25.73
2023-09-03T19:13:12.301Z,25.73
2023-09-03T19:15:40.272Z,25.68
2023-09-03T19:18:14.250Z,25.55
2023-09-03T19:20:41.709Z,25.57
2023-09-03T19:23:11.631Z,25.58
2023-09-03T19:25:43.558Z,25.51
2023-09-03T19:28:16.147Z,25.40
2023-09-03T19:30:44.689Z,25.45
2023-09-03T19:33:12.409Z,25.33
2023-09-03T19:35:39.805Z,25.26
2023-09-03T19:38:07.705Z,25.31
2023-09-03T19:40:35.652Z,25.07
2023-09-03T19:43:03.062Z,25.13
2023-09-03T19:45:30.174Z,25.13
2023-09-03T19:48:20.809Z,25.27
2023-09-03T19:50:49.194Z,25.18
2023-09-03T19:53:16.587Z,25.04
2023-09-03T19:55:44.266Z,25.06
2023-09-03T19:58:15.181Z,25.02
2023-09-03T20:00:45.153Z,24.98
2023-09-03T20:03:13.590Z,24.87
2023-09-03T20:05:42.294Z,24.87
2023-09-03T20:08:09.829Z,24.70
2023-09-03T20:10:38.519Z,24.66
2023-09-03T20:13:08.788Z,24.58
2023-09-03T20:15:39.701Z,24.59
2023-09-03T20:18:07.576Z,24.45
2023-09-03T20:20:36.742Z,24.46
2023-09-03T20:23:05.129Z,24.43
2023-09-03T20:25:32.450Z,24.32
2023-09-03T20:27:59.837Z,24.32
2023-09-03T20:30:27.991Z,24.26
2023-09-03T20:32:55.767Z,24.18
2023-09-03T20:35:23.977Z,24.27
2023-09-03T20:37:52.194Z,24.20
2023-09-03T20:40:20.053Z,24.09
2023-09-03T20:42:47.204Z,24.06
2023-09-03T20:45:23.220Z,24.06
2023-09-03T20:47:51.501Z,24.02
2023-09-03T20:50:19.360Z,24.08
2023-09-03T20:52:46.606Z,23.96
2023-09-03T20:55:13.906Z,23.91
2023-09-03T20:57:43.290Z,23.87
2023-09-03T21:00:11.635Z,23.89
2023-09-03T21:02:42.364Z,23.83
2023-09-03T21:05:11.545Z,23.73
2023-09-03T21:07:38.771Z,23.84
2023-09-03T21:10:07.280Z,23.77
2023-09-03T21:12:35.534Z,23.82
2023-09-03T21:15:02.753Z,23.80
2023-09-03T21:17:32.981Z,23.90
2023-09-03T21:20:00.373Z,23.95
2023-09-03T21:22:27.734Z,23.97
2023-09-03T21:24:54.910Z,23.92
2023-09-03T21:27:22.127Z,23.96
2023-09-03T21:29:49.710Z,23.98
2023-09-03T21:32:17.556Z,23.95
2023-09-03T21:34:44.893Z,23.92
2023-09-03T21:37:12.066Z,23.85
2023-09-03T21:39:39.239Z,23.96
2023-09-03T21:42:08.654Z,23.79
2023-09-03T21:44:35.862Z,23.95
2023-09-03T21:47:03.261Z,23.92
2023-09-03T21:49:31.221Z,23.79
2023-09-03T21:51:58.779Z,23.86
2023-09-03T21:54:27.357Z,23.91
2023-09-03T21:56:55.641Z,23.83
2023-09-03T21:59:23.292Z,23.80
2023-09-03T22:01:50.770Z,23.76
2023-09-03T22:04:19.149Z,23.78
2023-09-03T22:06:47.704Z,23.60
2023-09-03T22:09:14.895Z,23.63
2023-09-03T22:11:42.245Z,23.62
2023-09-03T22:14:09.525Z,23.63
2023-09-03T22:16:36.716Z,23.55
2023-09-03T22:19:12.954Z,23.43
2023-09-03T22:21:51.959Z,23.27
2023-09-03T22:24:19.094Z,23.32
2023-09-03T22:26:46.413Z,23.25
2023-09-03T22:29:14.244Z,23.06
2023-09-03T22:31:41.666Z,23.12
2023-09-03T22:34:09.211Z,23.14
2023-09-03T22:36:36.445Z,23.19
2023-09-03T22:39:04.298Z,23.13
2023-09-03T22:41:31.421Z,23.19
2023-09-03T22:43:59.969Z,23.13
2023-09-03T22:46:27.313Z,23.07
2023-09-03T22:48:54.762Z,23.05
2023-09-03T22:51:21.892Z,23.21
2023-09-03T22:53:49.024Z,23.24
2023-09-03T22:56:16.569Z,23.28
2023-09-03T22:58:44.196Z,23.32
2023-09-03T23:01:12.610Z,23.39
2023-09-03T23:03:40.114Z,23.39
2023-09-03T23:06:07.584Z,23.45
2023-09-03T23:08:35.529Z,23.58
2023-09-03T23:11:05.549Z,23.60
2023-09-03T23:13:32.768Z,23.65
2023-09-03T23:16:00.140Z,23.82
2023-09-03T23:18:29.615Z,23.86
2023-09-03T23:20:57.444Z,23.88
2023-09-03T23:23:26.542Z,23.91
2023-09-03T23:25:53.806Z,24.05
2023-09-03T23:28:21.821Z,24.09
2023-09-03T23:30:50.258Z,24.21
2023-09-03T23:33:17.525Z,24.40
2023-09-03T23:35:44.905Z,24.49
2023-09-03T23:38:12.082Z,24.66
2023-09-03T23:40:39.750Z,24.60
2023-09-03T23:43:07.026Z,24.57
2023-09-03T23:45:34.505Z,24.44
2023-09-03T23:48:01.666Z,24.43
2023-09-03T23:50:29.390Z,24.53
2023-09-03T23:52:56.658Z,24.47
2023-09-03T23:55:23.886Z,24.44
2023-09-03T23:57:51.146Z,24.37
